Time;durP1;ratioP1;P1;durP2;ratioP2;P2;SDS_P1;SDS_P2;PMS_P1;PMS_P2;Temp;Humidity;BMP_temperature;BMP_pressure;BME280_temperature;BME280_humidity;BME280_pressure;Samples;Min_cycle;Max_cycle;Signal;HPM_P1;HPM_P2
2023/03/25 00:02:17;;;;;;;14.50;10.70;;;;;;;10.52;68.12;99341.96;109335;1275;21992;-81
2023/03/25 00:04:55;;;;;;;14.20;10.60;;;;;;;10.50;68.12;99338.42;109035;1275;23835;-80
2023/03/25 00:07:27;;;;;;;14.30;9.90;;;;;;;10.48;68.12;99334.34;109518;1273;21988;-82
2023/03/25 00:10:00;;;;;;;11.70;10.40;;;;;;;10.46;68.20;99335.50;109217;1276;22060;-80
2023/03/25 00:12:34;;;;;;;14.90;11.10;;;;;;;10.44;68.16;99333.35;109139;1275;21997;-81
2023/03/25 00:15:10;;;;;;;12.40;9.50;;;;;;;10.43;68.27;99329.55;109323;1275;22016;-81
2023/03/25 00:17:42;;;;;;;12.20;10.00;;;;;;;10.42;68.22;99328.04;109268;1275;23638;-80
2023/03/25 00:20:15;;;;;;;16.30;9.80;;;;;;;10.39;68.09;99324.58;109324;1275;22003;-80
2023/03/25 00:22:55;;;;;;;14.10;10.00;;;;;;;10.36;68.30;99324.73;109368;1274;23042;-80
2023/03/25 00:25:28;;;;;;;14.40;9.20;;;;;;;10.33;68.36;99324.86;109588;1272;24200;-79
2023/03/25 00:28:06;;;;;;;12.80;10.00;;;;;;;10.32;68.41;99318.14;109688;1267;21986;-79
2023/03/25 00:30:40;;;;;;;12.50;9.80;;;;;;;10.29;68.33;99315.88;110564;1260;21972;-80
2023/03/25 00:33:18;;;;;;;13.40;10.30;;;;;;;10.26;68.38;99320.02;110909;1260;21968;-79
2023/03/25 00:35:58;;;;;;;12.90;9.40;;;;;;;10.23;68.57;99320.67;110766;1260;21984;-79
2023/03/25 00:38:32;;;;;;;13.40;10.20;;;;;;;10.22;68.57;99320.05;110821;1260;22145;-80
2023/03/25 00:41:16;;;;;;;11.70;9.30;;;;;;;10.22;68.68;99313.29;111036;1260;22611;-79
2023/03/25 00:43:59;;;;;;;13.00;9.70;;;;;;;10.22;68.74;99308.79;110752;1260;22002;-79
2023/03/25 00:46:34;;;;;;;10.20;8.30;;;;;;;10.21;68.87;99309.52;110951;1259;22693;-80
2023/03/25 00:49:14;;;;;;;14.80;9.50;;;;;;;10.20;68.78;99308.16;110957;1260;21978;-80
2023/03/25 00:51:44;;;;;;;10.90;8.90;;;;;;;10.18;68.57;99308.96;110864;1260;22260;-80
2023/03/25 00:54:23;;;;;;;10.60;8.80;;;;;;;10.17;68.63;99315.46;110964;1259;21970;-81
2023/03/25 00:57:02;;;;;;;11.80;8.90;;;;;;;10.16;68.68;99313.06;111034;1260;21990;-81
2023/03/25 00:59:36;;;;;;;14.80;10.10;;;;;;;10.15;68.61;99305.61;110980;1260;21997;-81
2023/03/25 01:02:09;;;;;;;13.50;10.70;;;;;;;10.12;68.69;99304.06;111032;1260;23110;-81
2023/03/25 01:04:38;;;;;;;11.90;10.50;;;;;;;10.11;68.76;99301.14;110827;1260;21981;-81
2023/03/25 01:07:30;;;;;;;12.00;9.20;;;;;;;10.07;68.62;99300.64;111010;1260;22973;-80
2023/03/25 01:10:01;;;;;;;10.60;8.90;;;;;;;10.02;68.56;99305.27;110860;1260;21970;-81
2023/03/25 01:12:38;;;;;;;10.40;9.20;;;;;;;9.97;68.68;99306.55;111018;1259;21985;-81
2023/03/25 01:15:10;;;;;;;12.10;9.10;;;;;;;9.96;68.96;99303.63;110845;1260;23699;-80
2023/03/25 01:17:43;;;;;;;11.90;10.00;;;;;;;9.96;68.95;99302.45;110981;1260;21967;-81
2023/03/25 01:20:16;;;;;;;14.90;10.20;;;;;;;9.93;68.96;99302.77;111021;1260;22726;-81
2023/03/25 01:22:51;;;;;;;16.10;11.30;;;;;;;9.91;69.11;99295.23;110967;1260;21984;-82
2023/03/25 01:25:39;;;;;;;13.10;10.60;;;;;;;9.89;69.01;99289.59;110996;1260;21996;-81
2023/03/25 01:28:12;;;;;;;12.00;10.80;;;;;;;9.84;69.00;99291.63;110856;1247;21966;-79
2023/03/25 01:31:08;;;;;;;12.80;11.40;;;;;;;9.79;69.01;99291.71;110915;1260;21964;-80
2023/03/25 01:33:42;;;;;;;14.80;12.90;;;;;;;9.74;69.23;99292.48;110932;1260;21975;-80
2023/03/25 01:36:16;;;;;;;12.70;11.40;;;;;;;9.70;69.40;99291.97;111015;1258;23043;-79
2023/03/25 01:38:49;;;;;;;15.50;11.80;;;;;;;9.70;69.37;99289.90;110840;1260;22041;-79
2023/03/25 01:41:26;;;;;;;14.40;11.40;;;;;;;9.66;69.46;99286.30;110904;1253;23029;-79
2023/03/25 01:44:15;;;;;;;17.90;12.10;;;;;;;9.63;69.58;99284.50;110905;1260;23040;-82
2023/03/25 01:46:52;;;;;;;15.70;12.50;;;;;;;9.65;69.90;99288.06;110777;1260;21978;-78
2023/03/25 01:49:49;;;;;;;13.30;11.60;;;;;;;9.63;69.77;99290.58;110859;1260;22169;-80
2023/03/25 01:52:29;;;;;;;15.70;13.40;;;;;;;9.61;69.81;99286.34;110893;1260;21977;-80
2023/03/25 01:55:02;;;;;;;16.00;14.20;;;;;;;9.58;69.81;99286.64;110893;1260;22015;-80
2023/03/25 01:57:40;;;;;;;17.90;15.40;;;;;;;9.57;69.90;99288.98;110847;1260;22017;-80
2023/03/25 02:00:14;;;;;;;18.50;14.80;;;;;;;9.57;69.98;99291.23;110932;1260;21985;-82
2023/03/25 02:02:57;;;;;;;17.00;14.00;;;;;;;9.57;69.76;99294.70;111046;1260;24124;-80
2023/03/25 02:05:45;;;;;;;16.80;15.10;;;;;;;9.50;69.75;99291.56;110899;1252;22055;-81
2023/03/25 02:08:14;;;;;;;15.60;13.60;;;;;;;9.50;70.09;99293.66;111077;1260;22292;-80
2023/03/25 02:10:51;;;;;;;16.60;14.30;;;;;;;9.51;70.01;99295.36;110857;1260;21970;-81
2023/03/25 02:13:21;;;;;;;19.30;14.60;;;;;;;9.52;70.15;99293.25;110714;1260;21991;-82
2023/03/25 02:16:20;;;;;;;16.90;15.10;;;;;;;9.49;69.99;99287.98;110958;1260;23610;-81
2023/03/25 02:19:17;;;;;;;18.00;15.60;;;;;;;9.46;70.05;99281.90;110917;1260;23803;-82
2023/03/25 02:22:13;;;;;;;18.70;15.00;;;;;;;9.44;70.09;99276.28;111102;1260;21992;-80
2023/03/25 02:25:44;;;;;;;16.40;14.70;;;;;;;9.42;70.21;99272.01;111170;1260;21978;-81
2023/03/25 02:28:50;;;;;;;17.90;16.00;;;;;;;9.38;70.21;99265.10;110981;1260;22023;-81
2023/03/25 02:31:51;;;;;;;19.40;14.80;;;;;;;9.35;70.19;99264.20;110435;1267;24955;-81
2023/03/25 02:34:36;;;;;;;15.70;13.60;;;;;;;9.32;70.24;99260.73;109951;1268;22097;-81
2023/03/25 02:37:40;;;;;;;15.00;13.40;;;;;;;9.31;70.17;99257.30;110210;1268;22025;-80
2023/03/25 02:40:25;;;;;;;16.40;12.60;;;;;;;9.27;70.14;99252.42;109545;1274;22108;-82
2023/03/25 02:43:03;;;;;;;11.80;10.50;;;;;;;9.25;69.99;99252.02;109375;1273;22771;-82
2023/03/25 02:45:45;;;;;;;10.50;8.80;;;;;;;9.25;70.10;99250.48;109632;1274;22030;-83
2023/03/25 02:48:53;;;;;;;12.60;10.10;;;;;;;9.24;70.29;99253.45;109308;1275;22003;-82
2023/03/25 02:52:07;;;;;;;11.80;8.70;;;;;;;9.20;70.21;99249.98;110305;1267;24324;-80
2023/03/25 02:54:43;;;;;;;13.90;11.60;;;;;;;9.17;70.32;99244.41;110150;1267;22062;-81
2023/03/25 02:57:18;;;;;;;14.20;10.80;;;;;;;9.19;70.41;99246.41;109453;1273;21982;-81
2023/03/25 02:59:52;;;;;;;14.10;11.50;;;;;;;9.22;70.48;99245.40;110169;1266;23145;-81
2023/03/25 03:02:26;;;;;;;16.90;12.30;;;;;;;9.24;70.37;99251.39;110265;1266;23623;-79
2023/03/25 03:04:59;;;;;;;18.30;14.50;;;;;;;9.22;70.00;99253.58;110034;1266;23610;-79
2023/03/25 03:07:48;;;;;;;18.10;16.00;;;;;;;9.15;69.81;99254.61;110411;1266;22478;-81
2023/03/25 03:10:30;;;;;;;18.20;16.30;;;;;;;9.08;69.89;99253.54;110020;1267;21991;-80
2023/03/25 03:13:46;;;;;;;19.40;17.30;;;;;;;9.03;69.81;99257.48;109982;1267;23042;-81
2023/03/25 03:16:32;;;;;;;19.40;17.40;;;;;;;8.90;70.02;99258.27;109275;1260;21975;-80
2023/03/25 03:19:45;;;;;;;18.60;16.10;;;;;;;8.83;70.00;99260.33;110636;1260;22006;-79
2023/03/25 03:22:21;;;;;;;18.60;16.60;;;;;;;8.69;69.97;99253.20;110284;1267;21991;-78
2023/03/25 03:25:36;;;;;;;18.60;15.20;;;;;;;8.62;70.15;99258.20;110201;1267;23781;-81
2023/03/25 03:28:34;;;;;;;15.80;14.30;;;;;;;8.57;70.37;99265.38;109949;1267;21977;-81
2023/03/25 03:31:24;;;;;;;17.70;15.80;;;;;;;8.54;70.61;99270.02;110285;1267;22952;-81
2023/03/25 03:35:00;;;;;;;18.10;15.00;;;;;;;8.53;70.78;99269.35;110318;1267;23029;-84
2023/03/25 03:37:41;;;;;;;19.00;16.20;;;;;;;8.50;70.78;99270.02;109869;1271;21986;-81
2023/03/25 03:40:24;;;;;;;18.40;13.70;;;;;;;8.51;70.88;99272.95;109699;1271;22043;-79
2023/03/25 03:43:42;;;;;;;16.60;14.20;;;;;;;8.54;70.94;99276.10;109775;1272;22814;-80
2023/03/25 03:46:31;;;;;;;15.00;13.40;;;;;;;8.50;70.96;99272.77;109332;1273;23808;-80
2023/03/25 03:49:14;;;;;;;16.80;14.40;;;;;;;8.44;70.80;99273.41;109680;1271;22957;-80
2023/03/25 03:52:01;;;;;;;17.40;15.60;;;;;;;8.35;70.71;99272.08;109583;1272;22010;-81
2023/03/25 03:55:02;;;;;;;20.40;17.40;;;;;;;8.22;70.81;99268.48;109727;1271;21986;-82
2023/03/25 03:57:47;;;;;;;18.40;16.50;;;;;;;8.13;71.13;99272.55;109294;1278;23669;-80
2023/03/25 04:00:26;;;;;;;18.70;16.80;;;;;;;8.07;71.20;99272.64;109145;1272;22038;-80
2023/03/25 04:03:14;;;;;;;19.70;17.80;;;;;;;8.06;71.61;99269.39;109178;1279;22839;-81
2023/03/25 04:05:51;;;;;;;18.60;16.70;;;;;;;8.11;72.00;99268.83;109165;1279;22363;-81
2023/03/25 04:08:59;;;;;;;23.70;18.10;;;;;;;8.15;71.90;99272.63;108699;1283;24433;-81
2023/03/25 04:11:41;;;;;;;19.70;17.80;;;;;;;8.16;71.97;99275.70;108774;1283;23397;-81
2023/03/25 04:14:21;;;;;;;22.20;17.30;;;;;;;8.21;72.20;99280.49;108860;1279;21993;-80
2023/03/25 04:16:58;;;;;;;17.80;14.90;;;;;;;8.27;72.17;99280.24;109395;1273;22970;-80
2023/03/25 04:19:32;;;;;;;18.80;16.60;;;;;;;8.31;72.06;99277.98;109611;1273;23135;-80
2023/03/25 04:22:03;;;;;;;16.00;14.50;;;;;;;8.34;72.01;99279.92;109404;1274;22004;-80
2023/03/25 04:24:36;;;;;;;17.30;14.80;;;;;;;8.36;71.97;99278.77;109507;1274;23078;-81
2023/03/25 04:27:05;;;;;;;17.50;14.80;;;;;;;8.40;72.09;99281.56;109775;1268;21978;-82
2023/03/25 04:29:33;;;;;;;19.70;15.10;;;;;;;8.46;72.20;99277.47;109829;1268;22512;-81
2023/03/25 04:32:06;;;;;;;17.40;15.60;;;;;;;8.52;72.15;99276.67;109740;1268;23736;-81
2023/03/25 04:34:35;;;;;;;16.50;14.60;;;;;;;8.56;71.94;99280.48;110077;1268;22650;-79
2023/03/25 04:37:09;;;;;;;16.10;13.70;;;;;;;8.58;71.98;99278.30;109380;1274;23006;-80
2023/03/25 04:39:38;;;;;;;21.40;14.50;;;;;;;8.61;71.89;99274.54;109580;1266;21995;-80
2023/03/25 04:42:12;;;;;;;19.70;13.90;;;;;;;8.64;71.72;99276.67;110080;1266;21978;-82
2023/03/25 04:44:45;;;;;;;14.20;12.20;;;;;;;8.64;71.40;99279.27;110155;1267;21995;-80
2023/03/25 04:47:16;;;;;;;17.00;12.50;;;;;;;8.62;71.23;99282.65;109855;1267;22073;-80
2023/03/25 04:49:48;;;;;;;15.80;13.30;;;;;;;8.59;71.17;99283.13;110594;1266;24300;-81
2023/03/25 04:52:16;;;;;;;18.20;12.30;;;;;;;8.58;71.13;99284.91;110401;1257;23051;-80
2023/03/25 04:54:45;;;;;;;21.90;14.00;;;;;;;8.60;71.21;99291.76;109782;1267;22747;-82
2023/03/25 04:57:14;;;;;;;18.40;13.30;;;;;;;8.62;71.33;99290.80;110286;1267;21996;-80
2023/03/25 04:59:45;;;;;;;15.60;13.60;;;;;;;8.64;71.29;99284.08;110017;1266;21982;-81
2023/03/25 05:02:17;;;;;;;13.30;11.30;;;;;;;8.67;71.37;99290.39;109961;1267;21953;-81
2023/03/25 05:04:52;;;;;;;12.10;9.90;;;;;;;8.69;71.38;99290.31;110056;1267;22569;-81
2023/03/25 05:07:25;;;;;;;13.90;8.80;;;;;;;8.72;71.48;99288.08;110270;1267;21992;-81
2023/03/25 05:10:01;;;;;;;10.10;8.30;;;;;;;8.77;71.43;99287.83;109388;1272;22000;-81
2023/03/25 05:12:30;;;;;;;9.80;8.00;;;;;;;8.83;71.24;99291.90;109762;1267;21992;-81
2023/03/25 05:14:58;;;;;;;8.70;7.50;;;;;;;8.88;71.11;99296.17;110386;1267;22075;-81
2023/03/25 05:17:32;;;;;;;9.30;7.30;;;;;;;8.93;71.12;99296.64;110270;1267;21981;-82
2023/03/25 05:20:10;;;;;;;10.30;9.00;;;;;;;8.99;70.92;99297.21;110233;1266;21997;-82
2023/03/25 05:22:47;;;;;;;13.30;8.00;;;;;;;9.06;70.71;99299.84;110541;1267;22002;-80
2023/03/25 05:25:33;;;;;;;10.00;8.90;;;;;;;9.13;70.64;99297.73;110431;1268;21978;-82
2023/03/25 05:28:14;;;;;;;16.60;12.50;;;;;;;9.20;70.43;99294.79;110138;1266;22396;-82
2023/03/25 05:30:46;;;;;;;22.70;15.20;;;;;;;9.29;70.16;99297.50;110046;1267;22007;-82
2023/03/25 05:33:28;;;;;;;16.90;11.10;;;;;;;9.36;69.99;99295.03;110497;1267;21987;-81
2023/03/25 05:36:02;;;;;;;16.90;10.60;;;;;;;9.43;69.66;99294.70;110159;1267;23045;-79
2023/03/25 05:38:36;;;;;;;18.10;11.30;;;;;;;9.48;69.27;99291.86;110434;1267;23612;-80
2023/03/25 05:41:09;;;;;;;22.60;13.60;;;;;;;9.55;69.32;99285.94;109503;1271;23640;-79
2023/03/25 05:43:46;;;;;;;24.80;14.30;;;;;;;9.63;69.00;99289.22;109197;1274;22353;-81
2023/03/25 05:46:22;;;;;;;23.00;15.20;;;;;;;9.71;68.86;99286.54;109761;1268;22057;-81
2023/03/25 05:48:55;;;;;;;22.40;13.10;;;;;;;9.79;68.55;99284.89;110379;1267;21992;-80
2023/03/25 05:51:34;;;;;;;16.30;13.00;;;;;;;9.86;68.21;99281.95;110099;1268;22858;-82
2023/03/25 05:54:23;;;;;;;11.50;8.10;;;;;;;9.90;67.78;99279.64;110128;1268;23028;-79
2023/03/25 05:56:52;;;;;;;9.50;6.50;;;;;;;9.91;67.29;99284.48;110108;1267;21974;-78
2023/03/25 05:59:24;;;;;;;11.80;7.50;;;;;;;9.93;67.27;99286.06;109931;1268;22010;-80
2023/03/25 06:01:56;;;;;;;10.50;7.20;;;;;;;9.98;67.09;99283.92;109219;1274;22005;-80
2023/03/25 06:04:32;;;;;;;13.80;8.00;;;;;;;10.02;66.82;99286.70;109392;1274;22765;-80
2023/03/25 06:07:18;;;;;;;13.30;8.30;;;;;;;10.07;66.40;99287.27;109353;1274;24474;-81
2023/03/25 06:09:52;;;;;;;16.30;8.30;;;;;;;10.10;66.37;99290.23;109238;1274;21993;-80
2023/03/25 06:12:29;;;;;;;14.00;8.80;;;;;;;10.12;66.12;99288.91;109558;1274;22068;-80
2023/03/25 06:15:16;;;;;;;13.40;8.20;;;;;;;10.17;65.93;99291.81;109289;1274;21999;-78
2023/03/25 06:17:51;;;;;;;15.80;8.30;;;;;;;10.27;66.05;99289.21;109198;1262;21996;-79
2023/03/25 06:20:21;;;;;;;10.20;8.20;;;;;;;10.42;66.03;99288.60;109470;1268;23133;-79
2023/03/25 06:23:02;;;;;;;10.30;7.10;;;;;;;10.58;65.75;99288.43;109739;1268;22034;-78
2023/03/25 06:25:37;;;;;;;8.40;5.70;;;;;;;10.72;65.33;99292.13;110095;1263;21984;-78
2023/03/25 06:28:17;;;;;;;11.30;6.20;;;;;;;10.86;64.94;99290.84;109952;1267;22000;-79
2023/03/25 06:30:57;;;;;;;13.20;8.00;;;;;;;11.02;64.41;99291.04;109560;1270;23164;-79
2023/03/25 06:33:28;;;;;;;10.40;6.90;;;;;;;11.18;64.16;99294.66;109631;1270;22434;-80
2023/03/25 06:36:20;;;;;;;12.10;6.10;;;;;;;11.32;63.76;99293.69;109765;1270;22816;-80
2023/03/25 06:39:04;;;;;;;7.80;5.30;;;;;;;11.45;63.30;99292.38;109937;1270;23706;-79
2023/03/25 06:41:44;;;;;;;8.50;5.50;;;;;;;11.62;62.98;99298.71;109858;1270;22339;-79
2023/03/25 06:44:26;;;;;;;10.60;6.70;;;;;;;11.83;62.92;99298.67;110079;1268;23080;-79
2023/03/25 06:47:18;;;;;;;13.30;8.20;;;;;;;11.95;61.65;99300.82;110213;1267;22037;-79
2023/03/25 06:50:04;;;;;;;11.70;7.40;;;;;;;12.07;61.76;99301.85;110802;1261;22387;-79
2023/03/25 06:52:44;;;;;;;12.10;7.90;;;;;;;12.49;62.55;99300.14;110543;1260;22158;-79
2023/03/25 06:55:12;;;;;;;11.30;7.00;;;;;;;12.96;61.96;99297.33;110916;1260;23036;-79
2023/03/25 06:57:45;;;;;;;9.30;6.40;;;;;;;13.16;59.66;99301.44;110858;1260;22024;-80
2023/03/25 07:00:19;;;;;;;9.30;6.00;;;;;;;13.30;59.24;99298.60;110800;1261;21982;-78
2023/03/25 07:02:52;;;;;;;9.30;6.00;;;;;;;13.68;59.44;99293.12;110445;1260;22007;-79
2023/03/25 07:05:30;;;;;;;8.80;5.70;;;;;;;14.09;58.17;99290.40;110122;1265;21986;-79
2023/03/25 07:08:01;;;;;;;11.20;5.90;;;;;;;14.25;56.26;99287.17;110040;1265;21986;-78
2023/03/25 07:10:35;;;;;;;9.60;6.10;;;;;;;14.29;55.40;99286.20;110248;1265;22010;-79
2023/03/25 07:13:06;;;;;;;9.50;5.50;;;;;;;14.29;55.19;99286.52;110497;1265;23746;-81
2023/03/25 07:15:41;;;;;;;13.40;5.90;;;;;;;14.24;54.55;99284.79;110465;1265;21978;-82
2023/03/25 07:18:12;;;;;;;7.70;4.80;;;;;;;14.17;54.09;99285.27;110430;1265;22162;-81
2023/03/25 07:20:42;;;;;;;9.80;5.30;;;;;;;14.00;53.70;99291.52;109871;1271;21986;-81
2023/03/25 07:23:17;;;;;;;10.60;5.60;;;;;;;13.76;53.57;99294.92;109636;1271;23637;-81
2023/03/25 07:25:45;;;;;;;9.00;4.90;;;;;;;13.54;53.87;99289.89;109679;1271;23035;-80
2023/03/25 07:28:19;;;;;;;12.50;6.30;;;;;;;13.37;54.12;99291.20;109401;1271;21991;-81
2023/03/25 07:30:48;;;;;;;11.70;7.50;;;;;;;13.17;54.15;99291.28;110240;1268;21995;-81
2023/03/25 07:33:20;;;;;;;9.00;6.00;;;;;;;12.97;54.46;99285.02;110103;1268;23085;-82
2023/03/25 07:35:48;;;;;;;10.80;5.70;;;;;;;12.85;54.92;99284.91;109930;1268;21994;-80
2023/03/25 07:38:21;;;;;;;11.80;6.80;;;;;;;12.78;55.14;99285.58;110460;1260;22440;-82
2023/03/25 07:40:52;;;;;;;11.80;7.90;;;;;;;12.71;55.30;99290.93;110882;1260;21999;-80
2023/03/25 07:43:29;;;;;;;9.90;6.80;;;;;;;12.62;55.40;99286.71;110206;1265;21993;-81
2023/03/25 07:46:12;;;;;;;10.40;7.70;;;;;;;12.55;55.60;99284.58;110070;1266;23056;-80
2023/03/25 07:48:47;;;;;;;8.40;6.70;;;;;;;12.52;55.78;99286.86;109602;1271;21993;-81
2023/03/25 07:51:32;;;;;;;;;;;;;;;12.50;56.16;99289.41;109678;1271;21976;-79
2023/03/25 07:54:10;;;;;;;11.60;6.30;;;;;;;12.39;56.35;99286.06;109637;1271;23609;-81
2023/03/25 07:56:42;;;;;;;13.50;6.60;;;;;;;12.34;56.35;99287.46;109703;1271;22004;-82
2023/03/25 07:59:18;;;;;;;12.00;7.10;;;;;;;12.32;56.62;99282.88;109695;1271;21996;-82
2023/03/25 08:02:01;;;;;;;9.30;6.00;;;;;;;12.26;56.49;99286.36;109990;1267;21995;-80
2023/03/25 08:04:36;;;;;;;8.40;6.30;;;;;;;12.18;56.55;99287.02;110596;1265;22005;-81
2023/03/25 08:07:18;;;;;;;11.40;8.90;;;;;;;12.13;56.86;99285.58;110272;1264;23607;-79
2023/03/25 08:10:00;;;;;;;11.20;7.70;;;;;;;12.11;56.95;99283.64;110175;1264;23098;-81
2023/03/25 08:12:40;;;;;;;11.10;7.10;;;;;;;12.07;57.19;99281.20;110697;1264;21979;-78
2023/03/25 08:15:19;;;;;;;28.80;19.80;;;;;;;12.13;57.39;99280.91;110659;1264;22037;-79
2023/03/25 08:18:05;;;;;;;17.00;12.00;;;;;;;12.18;57.61;99282.52;110708;1257;22956;-81
2023/03/25 08:20:44;;;;;;;12.30;10.10;;;;;;;12.22;57.58;99286.27;110256;1260;24392;-80
2023/03/25 08:23:25;;;;;;;13.80;10.60;;;;;;;12.22;57.31;99286.25;110451;1264;21997;-80
2023/03/25 08:26:01;;;;;;;12.00;8.30;;;;;;;12.22;57.47;99281.55;110417;1260;21818;-82
2023/03/25 08:28:37;;;;;;;11.50;8.30;;;;;;;12.20;57.53;99281.84;110846;1261;23699;-81
2023/03/25 08:31:19;;;;;;;14.70;7.40;;;;;;;12.20;57.61;99278.52;110890;1260;21986;-82
2023/03/25 08:34:05;;;;;;;13.40;9.60;;;;;;;12.25;57.98;99276.66;110919;1260;21985;-81
2023/03/25 08:36:42;;;;;;;16.30;9.60;;;;;;;12.34;57.89;99273.68;110881;1260;23066;-80
2023/03/25 08:39:18;;;;;;;15.70;9.20;;;;;;;12.40;57.53;99272.76;110856;1260;21972;-83
2023/03/25 08:41:49;;;;;;;15.40;8.40;;;;;;;12.46;57.56;99273.97;110962;1260;21991;-81
2023/03/25 08:44:24;;;;;;;12.60;7.80;;;;;;;12.48;57.35;99273.14;110943;1261;22836;-82
2023/03/25 08:46:52;;;;;;;10.10;7.70;;;;;;;12.49;57.27;99274.67;110990;1260;21962;-81
2023/03/25 08:49:31;;;;;;;15.70;8.80;;;;;;;12.51;57.23;99275.23;111018;1259;21988;-82
2023/03/25 08:52:20;;;;;;;12.80;7.40;;;;;;;12.53;57.22;99278.56;110930;1260;21973;-81
2023/03/25 08:54:52;;;;;;;39.90;35.50;;;;;;;12.51;57.36;99276.46;110749;1260;21968;-83
2023/03/25 08:57:20;;;;;;;12.10;10.10;;;;;;;12.52;57.38;99279.70;110607;1260;22727;-80
2023/03/25 08:59:59;;;;;;;10.00;7.10;;;;;;;12.51;57.13;99281.46;110877;1247;23033;-81
2023/03/25 09:02:40;;;;;;;10.40;7.70;;;;;;;12.46;57.08;99287.58;111015;1260;22026;-81
2023/03/25 09:05:15;;;;;;;12.50;9.20;;;;;;;12.42;57.26;99287.98;110829;1260;21971;-82
2023/03/25 09:08:08;;;;;;;13.60;10.20;;;;;;;12.36;57.54;99284.20;110930;1260;23703;-81
2023/03/25 09:11:00;;;;;;;10.80;8.20;;;;;;;12.31;57.86;99284.34;110346;1266;23113;-81
2023/03/25 09:13:33;;;;;;;10.20;7.00;;;;;;;12.29;58.10;99287.42;109704;1271;22003;-80
2023/03/25 09:16:02;;;;;;;9.20;6.40;;;;;;;12.31;58.22;99289.21;109855;1270;22847;-82
2023/03/25 09:18:37;;;;;;;13.50;7.90;;;;;;;12.35;58.47;99291.56;109307;1276;22754;-81
2023/03/25 09:21:19;;;;;;;11.30;7.70;;;;;;;12.36;58.47;99288.91;109530;1275;23061;-81
2023/03/25 09:23:54;;;;;;;10.50;8.40;;;;;;;12.38;58.55;99291.91;109500;1274;21996;-81
2023/03/25 09:26:35;;;;;;;11.80;8.00;;;;;;;12.38;58.59;99289.97;109500;1276;21983;-82
2023/03/25 09:29:11;;;;;;;11.50;7.40;;;;;;;12.38;58.62;99294.33;109823;1271;22006;-81
2023/03/25 09:31:42;;;;;;;11.20;8.80;;;;;;;12.43;58.84;99296.48;109921;1267;23196;-82
2023/03/25 09:34:15;;;;;;;13.30;7.70;;;;;;;12.48;58.81;99304.39;110098;1267;22753;-82
2023/03/25 09:36:49;;;;;;;10.90;6.80;;;;;;;12.44;58.53;99304.94;110366;1260;22408;-81
2023/03/25 09:39:20;;;;;;;15.60;8.90;;;;;;;12.39;58.61;99313.33;110796;1260;23663;-82
2023/03/25 09:42:09;;;;;;;;;;;;;;;12.38;58.79;99322.97;110941;1261;22804;-83
2023/03/25 09:45:24;;;;;;;7.40;5.50;;;;;;;12.26;58.89;99323.03;110883;1260;22771;-80
2023/03/25 09:48:20;;;;;;;10.60;6.40;;;;;;;12.13;59.13;99314.34;109586;1273;21988;-80
2023/03/25 09:50:54;;;;;;;11.90;9.50;;;;;;;12.10;59.84;99299.05;109590;1273;22004;-82
2023/03/25 09:54:04;;;;;;;28.40;25.30;;;;;;;12.17;60.41;99290.58;109137;1277;22019;-82
2023/03/25 09:56:43;;;;;;;15.20;9.40;;;;;;;12.30;61.23;99288.21;109180;1277;22424;-80
2023/03/25 09:59:41;;;;;;;12.50;8.90;;;;;;;12.55;62.17;99284.71;108784;1283;22419;-83
2023/03/25 10:02:48;;;;;;;13.80;10.50;;;;;;;13.29;63.82;99280.64;108772;1283;23635;-82
2023/03/25 10:05:53;;;;;;;10.20;8.40;;;;;;;14.48;63.68;99275.89;108826;1279;22454;-80
2023/03/25 10:08:44;;;;;;;13.60;9.60;;;;;;;15.74;62.09;99269.35;108924;1279;23049;-80
2023/03/25 10:11:41;;;;;;;9.90;5.80;;;;;;;16.81;59.51;99261.32;109077;1278;23809;-80
2023/03/25 10:14:50;;;;;;;8.80;6.20;;;;;;;17.74;56.60;99255.54;108601;1284;22013;-81
2023/03/25 10:17:55;;;;;;;6.90;4.80;;;;;;;18.59;53.45;99252.51;108846;1277;22015;-79
2023/03/25 10:21:14;;;;;;;9.50;5.10;;;;;;;19.12;50.42;99240.67;108981;1277;22494;-80
2023/03/25 10:24:05;;;;;;;7.80;5.80;;;;;;;18.96;47.97;99235.96;108866;1283;22027;-82
2023/03/25 10:27:05;;;;;;;10.90;7.40;;;;;;;18.51;47.50;99237.52;108875;1283;23637;-83
2023/03/25 10:30:14;;;;;;;9.50;7.00;;;;;;;18.05;47.49;99237.25;108760;1280;23552;-82
2023/03/25 10:33:09;;;;;;;8.30;6.30;;;;;;;17.64;47.93;99239.73;108977;1277;23629;-80
2023/03/25 10:35:46;;;;;;;8.10;5.20;;;;;;;17.28;47.96;99232.55;109115;1277;21992;-80
2023/03/25 10:38:23;;;;;;;8.20;5.70;;;;;;;16.88;47.87;99229.45;108868;1273;22494;-81
2023/03/25 10:41:21;;;;;;;6.60;5.40;;;;;;;16.48;48.13;99225.84;108879;1281;23026;-80
2023/03/25 10:43:59;;;;;;;7.20;5.30;;;;;;;16.17;48.81;99221.96;108802;1282;23712;-83
2023/03/25 10:46:47;;;;;;;10.20;5.40;;;;;;;15.97;48.92;99219.17;108785;1277;22045;-80
2023/03/25 10:49:29;;;;;;;9.20;5.70;;;;;;;15.77;49.43;99213.15;109143;1277;22005;-79
2023/03/25 10:52:01;;;;;;;9.80;5.00;;;;;;;15.65;49.54;99213.90;109243;1277;22006;-79
2023/03/25 10:54:39;;;;;;;12.20;5.60;;;;;;;15.45;49.34;99212.29;109085;1277;23094;-80
2023/03/25 10:57:26;;;;;;;9.70;7.40;;;;;;;15.18;49.67;99210.42;108970;1280;21993;-79
2023/03/25 11:00:22;;;;;;;28.50;25.60;;;;;;;14.96;50.13;99216.83;108425;1281;23550;-80
2023/03/25 11:02:51;;;;;;;15.20;12.30;;;;;;;14.73;50.41;99221.44;108950;1275;22012;-80
2023/03/25 11:05:28;;;;;;;7.30;5.40;;;;;;;14.50;50.67;99217.67;109335;1275;23778;-81
2023/03/25 11:08:04;;;;;;;8.80;5.60;;;;;;;14.38;51.98;99216.91;109188;1275;22056;-80
2023/03/25 11:10:59;;;;;;;6.20;4.70;;;;;;;14.50;52.39;99226.08;109269;1278;23753;-85
2023/03/25 11:13:31;;;;;;;5.50;3.90;;;;;;;14.49;51.96;99228.95;109039;1278;23766;-83
2023/03/25 11:16:17;;;;;;;10.00;5.10;;;;;;;14.32;51.50;99243.96;109719;1272;22467;-84
2023/03/25 11:19:05;;;;;;;10.00;7.10;;;;;;;14.14;51.81;99259.71;110124;1267;22017;-83
2023/03/25 11:21:46;;;;;;;12.00;9.30;;;;;;;13.86;51.96;99253.07;109844;1270;22162;-84
2023/03/25 11:24:45;;;;;;;10.70;5.90;;;;;;;13.43;52.51;99242.24;109951;1270;21985;-83
2023/03/25 11:27:28;;;;;;;7.30;6.10;;;;;;;13.01;54.08;99226.45;109886;1270;23721;-85
2023/03/25 11:30:15;;;;;;;9.80;8.00;;;;;;;12.76;55.49;99227.39;110573;1264;22033;-83
2023/03/25 11:33:24;;;;;;;12.80;9.40;;;;;;;12.62;56.72;99233.88;110632;1264;22040;-84
2023/03/25 11:36:45;;;;;;;43.30;38.70;;;;;;;12.51;57.56;99242.80;110774;1266;22642;-82
2023/03/25 11:39:42;;;;;;;21.20;18.90;;;;;;;12.35;58.11;99243.92;110277;1269;23615;-81
2023/03/25 11:42:27;;;;;;;18.00;10.50;;;;;;;12.27;59.08;99244.64;110377;1269;22024;-83
2023/03/25 11:45:25;;;;;;;9.70;7.10;;;;;;;12.29;59.90;99242.21;110227;1269;23750;-81
2023/03/25 11:48:31;;;;;;;8.80;6.40;;;;;;;12.36;60.55;99241.44;110222;1269;22009;-82
2023/03/25 11:51:05;;;;;;;9.40;5.20;;;;;;;12.46;60.74;99239.91;109842;1269;22416;-82
2023/03/25 11:53:57;;;;;;;7.10;5.20;;;;;;;12.56;60.92;99227.11;109937;1269;21984;-82
2023/03/25 11:56:50;;;;;;;5.30;3.50;;;;;;;12.70;61.46;99212.92;109753;1269;21987;-81
2023/03/25 11:59:49;;;;;;;11.10;4.10;;;;;;;12.83;61.31;99205.07;110143;1269;21987;-81
2023/03/25 12:02:39;;;;;;;5.20;3.40;;;;;;;12.94;61.09;99198.44;110157;1269;21756;-82
2023/03/25 12:05:11;;;;;;;6.30;3.80;;;;;;;12.92;60.94;99195.97;110147;1269;21861;-79
2023/03/25 12:07:49;;;;;;;4.50;3.50;;;;;;;12.91;60.85;99194.96;110349;1269;21920;-82
2023/03/25 12:10:58;;;;;;;6.40;4.10;;;;;;;12.91;60.77;99194.65;109756;1269;21968;-82
2023/03/25 12:14:29;;;;;;;5.00;3.20;;;;;;;12.92;60.73;99188.80;110187;1267;21988;-82
2023/03/25 12:17:37;;;;;;;5.20;2.10;;;;;;;12.88;60.51;99188.19;111061;1260;22005;-80
2023/03/25 12:20:20;;;;;;;3.90;3.00;;;;;;;12.90;60.60;99190.88;110872;1260;21995;-82
2023/03/25 12:23:26;;;;;;;5.50;3.10;;;;;;;12.98;60.58;99185.06;110458;1267;22635;-82
2023/03/25 12:26:12;;;;;;;5.10;2.20;;;;;;;13.07;60.15;99179.45;109873;1265;21990;-82
2023/03/25 12:29:23;;;;;;;5.90;2.90;;;;;;;13.13;59.83;99174.64;110238;1267;21995;-84